Time;durP1;ratioP1;P1;durP2;ratioP2;P2;SDS_P1;SDS_P2;PMS_P1;PMS_P2;Temp;Humidity;BMP_temperature;BMP_pressure;BME280_temperature;BME280_humidity;BME280_pressure;Samples;Min_cycle;Max_cycle;Signal;HPM_P1;HPM_P2
2022/11/10 05:39:01;;;;;;;9.57;6.20;;;;;;;9.54;nan;100328.94;5244504;24;20250;-91
2022/11/10 05:41:50;;;;;;;10.90;6.00;;;;;;;9.46;nan;100328.44;4731376;30;20221;-91
2022/11/10 05:44:34;;;;;;;7.43;6.35;;;;;;;9.45;nan;100332.84;4733936;30;20274;-92
2022/11/10 05:47:22;;;;;;;7.45;5.63;;;;;;;9.45;nan;100334.59;4731749;30;20234;-91
2022/11/10 05:50:13;;;;;;;9.48;6.78;;;;;;;9.48;nan;100337.94;4741381;30;20219;-92
2022/11/10 05:52:57;;;;;;;5.75;5.10;;;;;;;9.50;nan;100337.84;4732370;30;20435;-90
2022/11/10 05:55:46;;;;;;;21.60;5.70;;;;;;;9.50;nan;100341.34;4727096;30;20829;-91
2022/11/10 05:58:30;;;;;;;15.35;5.90;;;;;;;9.47;nan;100346.72;4731829;30;20214;-92
2022/11/10 06:01:15;;;;;;;10.90;5.53;;;;;;;9.45;nan;100347.69;4740358;30;20223;-93
2022/11/10 06:03:59;;;;;;;11.43;5.65;;;;;;;9.43;nan;100349.56;4739631;30;20248;-91
2022/11/10 06:06:44;;;;;;;8.65;6.20;;;;;;;9.40;nan;100361.06;4735115;30;20230;-90
2022/11/10 06:09:28;;;;;;;17.13;5.43;;;;;;;9.35;nan;100363.03;4730735;30;20434;-90
2022/11/10 06:12:12;;;;;;;9.38;3.90;;;;;;;9.27;nan;100362.53;4732854;30;21157;-90
2022/11/10 06:14:59;;;;;;;12.05;5.93;;;;;;;9.20;nan;100368.97;4734945;30;20254;-91
2022/11/10 06:17:44;;;;;;;15.02;3.75;;;;;;;9.12;nan;100371.94;4733663;30;20227;-90
2022/11/10 06:21:06;;;;;;;;;;;;;;;;;;;;;
2022/11/10 06:23:54;;;;;;;8.88;3.05;;;;;;;8.94;nan;100373.63;4746983;30;20285;-91
2022/11/10 06:26:39;;;;;;;6.38;3.90;;;;;;;8.90;nan;100387.78;4731275;30;20226;-89
2022/11/10 06:29:23;;;;;;;8.43;3.90;;;;;;;8.85;nan;100395.81;4717452;30;20258;-89
2022/11/10 06:32:07;;;;;;;30.90;5.22;;;;;;;8.82;nan;100400.38;4735248;30;20289;-88
2022/11/10 06:34:54;;;;;;;6.18;3.42;;;;;;;8.80;nan;100396.94;4748177;30;20267;-90
2022/11/10 06:37:46;;;;;;;5.57;3.83;;;;;;;8.79;nan;100405.75;4737732;30;20948;-89
2022/11/10 06:40:38;;;;;;;8.00;6.82;;;;;;;8.79;nan;100417.06;4736980;30;20737;-90
2022/11/10 06:43:23;;;;;;;18.75;9.15;;;;;;;8.78;nan;100415.38;4740909;30;20254;-91
2022/11/10 06:46:07;;;;;;;10.35;6.95;;;;;;;8.73;nan;100432.22;4733758;30;20615;-90
2022/11/10 06:48:54;;;;;;;17.38;7.53;;;;;;;8.72;nan;100435.72;4739077;30;20231;-90
2022/11/10 06:51:38;;;;;;;11.98;6.20;;;;;;;8.73;nan;100447.94;4733788;30;20424;-92
2022/11/10 06:54:32;;;;;;;13.30;5.50;;;;;;;8.72;nan;100451.44;4734413;30;20337;-90
2022/11/10 06:57:16;;;;;;;13.07;5.45;;;;;;;8.73;nan;100451.38;4730060;30;20259;-90
2022/11/10 07:00:34;;;;;;;7.88;6.13;;;;;;;8.75;nan;100459.16;4747204;30;20791;-92
2022/11/10 07:03:20;;;;;;;15.27;5.78;;;;;;;8.79;nan;100466.84;4712875;30;20863;-88
2022/11/10 07:06:08;;;;;;;6.82;4.32;;;;;;;8.79;nan;100466.00;4738227;30;20297;-89
2022/11/10 07:08:52;;;;;;;5.13;4.20;;;;;;;8.79;nan;100464.22;4730792;30;20295;-91
2022/11/10 07:11:37;;;;;;;6.40;5.65;;;;;;;8.83;nan;100476.28;4757395;30;20257;-92
2022/11/10 07:14:21;;;;;;;10.05;8.20;;;;;;;8.87;nan;100477.00;4750112;30;20468;-92
2022/11/10 07:17:05;;;;;;;11.80;7.68;;;;;;;8.90;nan;100483.88;4747488;30;20235;-90
2022/11/10 07:19:49;;;;;;;12.98;8.63;;;;;;;8.96;nan;100488.84;4733385;30;20230;-91
2022/11/10 07:22:43;;;;;;;10.65;9.05;;;;;;;9.01;nan;100486.88;4732520;30;20762;-91
2022/11/10 07:25:34;;;;;;;12.02;9.25;;;;;;;9.05;nan;100499.78;4730663;30;20884;-90
2022/11/10 07:28:18;;;;;;;8.93;7.63;;;;;;;9.09;nan;100511.84;4732664;30;20250;-91
2022/11/10 07:31:03;;;;;;;9.80;6.20;;;;;;;9.11;nan;100516.19;4731515;30;20224;-92
2022/11/10 07:33:54;;;;;;;6.78;5.60;;;;;;;9.07;nan;100516.31;4730751;30;20238;-92
2022/11/10 07:36:46;;;;;;;6.55;4.03;;;;;;;9.03;nan;100514.72;4740109;30;20244;-90
2022/11/10 07:39:30;;;;;;;9.48;5.10;;;;;;;9.00;nan;100519.25;4742003;30;20262;-90
2022/11/10 07:42:17;;;;;;;7.70;6.22;;;;;;;9.00;nan;100524.50;4749793;30;20501;-91
2022/11/10 07:45:03;;;;;;;8.40;5.40;;;;;;;9.05;nan;100528.63;4748804;30;20299;-90
2022/11/10 07:47:50;;;;;;;6.57;5.95;;;;;;;9.13;nan;100527.41;4751444;30;20310;-92
2022/11/10 07:50:40;;;;;;;7.78;5.95;;;;;;;9.20;nan;100534.13;4744337;30;20320;-90
2022/11/10 07:53:24;;;;;;;7.45;6.75;;;;;;;9.29;nan;100534.59;4744518;30;20328;-89
2022/11/10 07:56:11;;;;;;;12.45;9.20;;;;;;;9.38;nan;100541.19;4751467;30;20824;-90
2022/11/10 07:58:55;;;;;;;10.93;7.40;;;;;;;9.47;nan;100551.25;4754896;30;20291;-89
2022/11/10 08:01:39;;;;;;;11.90;9.35;;;;;;;9.58;nan;100552.56;4746546;30;20233;-90
2022/11/10 08:04:23;;;;;;;16.67;15.05;;;;;;;9.67;nan;100554.78;4756340;30;20524;-91
2022/11/10 08:07:09;;;;;;;16.75;15.15;;;;;;;9.74;nan;100567.53;4744058;30;20265;-89
2022/11/10 08:09:59;;;;;;;11.68;10.65;;;;;;;9.83;nan;100570.66;4751152;30;20278;-89
2022/11/10 08:12:43;;;;;;;8.65;7.70;;;;;;;9.90;nan;100567.72;4760399;30;20276;-89
2022/11/10 08:15:29;;;;;;;8.70;7.47;;;;;;;9.98;nan;100570.84;4761724;30;20685;-90
2022/11/10 08:18:21;;;;;;;7.32;5.88;;;;;;;10.09;nan;100569.50;4761085;30;20266;-89
2022/11/10 08:21:06;;;;;;;6.47;5.85;;;;;;;10.18;nan;100571.72;4754541;30;20307;-90
2022/11/10 08:23:53;;;;;;;8.35;5.57;;;;;;;10.28;nan;100569.53;4760262;30;20277;-89
2022/11/10 08:26:37;;;;;;;8.88;7.18;;;;;;;10.41;nan;100573.28;4759435;30;20677;-89
2022/11/10 08:29:22;;;;;;;7.43;5.97;;;;;;;10.58;nan;100575.09;4761439;30;20221;-89
2022/11/10 08:32:05;;;;;;;8.20;6.50;;;;;;;10.72;nan;100579.66;4758712;30;20731;-90
2022/11/10 08:34:52;;;;;;;7.28;6.57;;;;;;;10.93;nan;100585.66;4761024;30;20252;-88
2022/11/10 08:37:36;;;;;;;12.57;6.78;;;;;;;11.66;nan;100587.16;4758266;30;20233;-89
2022/11/10 08:40:29;;;;;;;7.32;5.10;;;;;;;12.75;nan;100588.31;4741987;30;20239;-88
2022/11/10 08:43:14;;;;;;;5.53;4.28;;;;;;;14.09;nan;100583.84;4740592;30;20210;-90
2022/11/10 08:46:01;;;;;;;3.88;3.17;;;;;;;15.40;nan;100579.69;4740139;30;20307;-89
2022/11/10 08:48:45;;;;;;;6.18;3.65;;;;;;;;;;4735823;30;20382;-90
2022/11/10 08:51:32;;;;;;;3.20;2.85;;;;;;;17.84;nan;100577.78;4739309;30;20287;-90
2022/11/10 08:54:16;;;;;;;3.88;3.40;;;;;;;18.91;nan;100578.09;4739650;30;20505;-91
2022/11/10 08:57:00;;;;;;;3.75;3.45;;;;;;;19.77;nan;100578.84;4729751;30;20294;-89
2022/11/10 08:59:46;;;;;;;2.97;2.72;;;;;;;20.36;nan;100562.06;4740455;30;20257;-89
2022/11/10 09:02:31;;;;;;;4.25;3.20;;;;;;;20.88;nan;100570.69;4736877;30;20211;-89
2022/11/10 09:05:15;;;;;;;4.25;3.95;;;;;;;21.35;nan;100570.78;4720339;30;20217;-88
2022/11/10 09:08:08;;;;;;;5.57;2.70;;;;;;;21.82;nan;100570.84;4738934;30;20256;-90
2022/11/10 09:10:52;;;;;;;4.93;3.03;;;;;;;22.10;nan;100566.31;4737982;30;20842;-90
2022/11/10 09:13:36;;;;;;;3.30;2.57;;;;;;;22.34;nan;100578.34;4738222;30;20783;-89
2022/11/10 09:16:20;;;;;;;2.63;2.30;;;;;;;22.42;nan;100569.56;4738100;30;20747;-89
2022/11/10 09:19:07;;;;;;;2.43;2.23;;;;;;;22.53;nan;100577.38;4737341;30;20541;-90
2022/11/10 09:21:51;;;;;;;3.50;2.40;;;;;;;22.46;nan;100581.66;4740818;30;20452;-89
2022/11/10 09:24:35;;;;;;;3.20;2.70;;;;;;;22.19;nan;100591.38;4740300;30;20822;-91
2022/11/10 09:27:26;;;;;;;2.37;2.17;;;;;;;21.98;nan;100594.28;4740447;30;20447;-90
2022/11/10 09:30:11;;;;;;;2.85;2.65;;;;;;;21.32;nan;100592.44;4741503;30;20866;-90
2022/11/10 09:33:17;;;;;;;3.05;2.78;;;;;;;20.82;nan;100600.66;4743325;30;20254;-89
2022/11/10 09:36:02;;;;;;;3.35;2.75;;;;;;;20.42;nan;100606.03;4744831;30;20292;-89
2022/11/10 09:38:46;;;;;;;2.63;2.33;;;;;;;20.17;nan;100610.00;4749949;30;20407;-90
2022/11/10 09:41:30;;;;;;;3.05;2.70;;;;;;;19.94;nan;100618.19;4761550;30;20239;-89
2022/11/10 09:44:39;;;;;;;4.82;3.55;;;;;;;19.59;nan;100630.03;4760888;30;20230;-89
2022/11/10 09:47:32;;;;;;;6.60;2.72;;;;;;;19.01;nan;100638.47;4760308;30;20292;-90
2022/11/10 09:50:31;;;;;;;5.95;2.88;;;;;;;18.54;nan;100640.47;4759815;30;20230;-89
2022/11/10 09:53:25;;;;;;;4.20;2.35;;;;;;;18.16;nan;100651.50;4759324;30;20555;-90
2022/11/10 09:56:24;;;;;;;3.85;3.10;;;;;;;17.64;nan;100651.06;4768436;30;21011;-91
2022/11/10 09:59:43;;;;;;;3.60;3.30;;;;;;;16.91;nan;100656.59;4758579;30;20202;-90
2022/11/10 10:02:34;;;;;;;6.00;3.28;;;;;;;16.54;nan;100662.72;4747150;30;20258;-89
2022/11/10 10:05:18;;;;;;;3.22;2.70;;;;;;;16.27;nan;100654.09;4757917;30;20210;-91
2022/11/10 10:08:10;;;;;;;3.97;2.80;;;;;;;15.99;nan;100656.03;4757225;30;20407;-89
2022/11/10 10:11:02;;;;;;;8.02;3.42;;;;;;;15.78;nan;100662.81;4757370;30;20655;-90
2022/11/10 10:14:25;;;;;;;4.60;3.00;;;;;;;15.55;nan;100653.72;4758013;30;20265;-92
2022/11/10 10:17:45;;;;;;;3.15;2.80;;;;;;;15.48;nan;100658.59;4755282;30;20307;-91
2022/11/10 10:20:51;;;;;;;7.82;3.97;;;;;;;15.52;nan;100657.44;4760054;30;20297;-91
2022/11/10 10:23:40;;;;;;;5.97;3.67;;;;;;;15.61;nan;100658.63;4756984;30;20221;-91
2022/11/10 10:26:31;;;;;;;4.90;2.70;;;;;;;15.58;nan;100645.56;4757784;30;20284;-90
2022/11/10 10:29:31;;;;;;;3.05;1.92;;;;;;;15.56;nan;100639.56;4756086;30;20202;-91
2022/11/10 10:32:21;;;;;;;2.88;2.65;;;;;;;15.40;nan;100640.56;4755798;30;20489;-90
2022/11/10 10:35:08;;;;;;;2.53;2.20;;;;;;;15.31;nan;100646.50;4756893;30;20259;-90
2022/11/10 10:38:02;;;;;;;4.13;2.47;;;;;;;15.30;nan;100638.66;4757639;30;20325;-90
2022/11/10 10:40:52;;;;;;;6.32;4.32;;;;;;;15.14;nan;100647.59;4739530;30;20308;-90
2022/11/10 10:43:35;;;;;;;4.70;3.53;;;;;;;15.00;nan;100647.66;4727746;30;20308;-90
2022/11/10 10:46:31;;;;;;;4.88;3.28;;;;;;;14.94;nan;100648.09;4753687;30;20716;-90
2022/11/10 10:49:22;;;;;;;5.57;3.30;;;;;;;14.91;nan;100646.47;4753097;30;20205;-90
2022/11/10 10:52:15;;;;;;;4.28;2.65;;;;;;;14.92;nan;100642.88;4753048;30;20203;-93
2022/11/10 10:55:10;;;;;;;3.28;2.35;;;;;;;14.97;nan;100647.88;4760184;29;20310;-90
2022/11/10 10:58:00;;;;;;;3.22;2.42;;;;;;;14.94;nan;100640.16;4770525;29;20206;-91
2022/11/10 11:00:46;;;;;;;4.65;3.20;;;;;;;14.94;nan;100629.56;4763183;29;20199;-91
2022/11/10 11:03:33;;;;;;;4.05;2.30;;;;;;;14.96;nan;100625.00;4764055;29;20291;-90
2022/11/10 11:06:24;;;;;;;3.97;2.75;;;;;;;14.99;nan;100624.81;4768494;29;20333;-91
2022/11/10 11:09:17;;;;;;;7.25;2.40;;;;;;;15.01;nan;100626.41;4769933;29;20670;-90
2022/11/10 11:12:21;;;;;;;3.88;2.50;;;;;;;15.03;nan;100621.00;4765141;29;20261;-90
2022/11/10 11:15:20;;;;;;;5.22;2.67;;;;;;;15.03;nan;100623.66;4765239;29;20221;-90
2022/11/10 11:18:13;;;;;;;2.47;2.20;;;;;;;15.05;nan;100614.66;4771755;29;20234;-90
2022/11/10 11:21:33;;;;;;;4.32;2.20;;;;;;;15.08;nan;100620.72;4766678;29;20217;-90
2022/11/10 11:24:43;;;;;;;3.55;2.40;;;;;;;15.06;nan;100620.81;4763683;29;20502;-92
2022/11/10 11:27:38;;;;;;;4.45;2.40;;;;;;;15.00;nan;100622.06;4772192;29;21239;-89
2022/11/10 11:30:26;;;;;;;3.03;2.45;;;;;;;15.00;nan;100627.34;4758316;29;20374;-90
2022/11/10 11:33:27;;;;;;;5.68;2.50;;;;;;;15.01;nan;100629.06;4772072;29;20199;-91
2022/11/10 11:36:37;;;;;;;2.58;1.50;;;;;;;15.08;nan;100637.44;4770593;29;20280;-90
2022/11/10 11:39:34;;;;;;;2.67;2.05;;;;;;;15.12;nan;100638.94;4766778;29;20281;-91
2022/11/10 11:42:36;;;;;;;5.32;1.95;;;;;;;15.12;nan;100641.59;4771300;29;20260;-90
2022/11/10 11:45:26;;;;;;;2.10;1.33;;;;;;;15.15;nan;100644.03;4773917;29;20976;-91
2022/11/10 11:48:37;;;;;;;3.33;1.70;;;;;;;15.20;nan;100639.28;4778250;29;20218;-91
2022/11/10 11:51:25;;;;;;;2.30;1.90;;;;;;;15.25;nan;100642.44;4774793;29;20231;-90
2022/11/10 11:54:25;;;;;;;2.35;1.38;;;;;;;15.30;nan;100638.66;4775303;29;20264;-90
2022/11/10 11:57:38;;;;;;;2.80;1.90;;;;;;;15.31;nan;100641.22;4778037;29;20287;-90
2022/11/10 12:00:39;;;;;;;5.45;1.92;;;;;;;15.34;nan;100625.13;4773591;29;20567;-90
2022/11/10 12:03:47;;;;;;;2.58;1.80;;;;;;;15.39;nan;100619.50;4781874;29;20376;-92
2022/11/10 12:06:49;;;;;;;1.80;1.30;;;;;;;15.44;nan;100630.63;4773275;29;20810;-91
2022/11/10 12:09:51;;;;;;;2.00;1.35;;;;;;;15.42;nan;100628.09;4774053;29;20198;-91
2022/11/10 12:12:42;;;;;;;4.55;1.20;;;;;;;15.41;nan;100626.38;4774907;29;20217;-91
2022/11/10 12:16:01;;;;;;;3.70;1.50;;;;;;;15.44;nan;100631.47;4775944;29;20492;-92
2022/11/10 12:19:00;;;;;;;2.22;1.60;;;;;;;15.49;nan;100631.16;4773435;29;20268;-91
2022/11/10 12:22:04;;;;;;;3.92;1.50;;;;;;;15.49;nan;100618.75;4775215;29;20225;-93
2022/11/10 12:25:18;;;;;;;2.17;1.40;;;;;;;15.50;nan;100627.59;4768438;29;20296;-93
2022/11/10 12:28:19;;;;;;;1.88;1.75;;;;;;;15.50;nan;100622.28;4772563;29;20202;-94
2022/11/10 12:31:11;;;;;;;10.80;2.60;;;;;;;15.51;nan;100620.47;4770897;29;20281;-92
2022/11/10 12:34:04;;;;;;;5.28;2.03;;;;;;;15.54;nan;100623.75;4758917;30;20251;-93
2022/11/10 12:36:50;;;;;;;5.18;1.92;;;;;;;15.59;nan;100618.16;4771161;29;20201;-92
2022/11/10 12:40:01;;;;;;;4.03;2.03;;;;;;;15.59;nan;100626.09;4777583;29;21251;-93
2022/11/10 12:42:54;;;;;;;2.33;1.70;;;;;;;15.57;nan;100614.75;4786146;29;20860;-93
2022/11/10 12:46:03;;;;;;;4.68;2.70;;;;;;;15.57;nan;100604.16;4786583;29;20252;-94
2022/11/10 12:52:41;;;;;;;2.75;2.50;;;;;;;15.60;nan;100602.16;4777696;29;20202;-92
2022/11/10 12:55:36;;;;;;;4.15;2.35;;;;;;;15.65;nan;100602.69;4790405;29;20373;-93
2022/11/10 12:58:25;;;;;;;4.82;2.17;;;;;;;15.67;nan;100602.59;4789819;29;20205;-93
2022/11/10 13:01:29;;;;;;;;;;;;;;;;;;;;;
2022/11/10 13:04:21;;;;;;;2.90;2.53;;;;;;;15.68;nan;100594.53;4788636;29;20197;-93
2022/11/10 13:07:08;;;;;;;4.88;3.15;;;;;;;15.72;nan;100594.38;4773442;29;20284;-91
2022/11/10 13:09:59;;;;;;;5.22;2.40;;;;;;;15.70;nan;100603.25;4788290;29;20201;-93
2022/11/10 13:13:20;;;;;;;;;;;;;;;;;;;;;
2022/11/10 13:16:07;;;;;;;3.30;1.88;;;;;;;15.74;nan;100587.97;4790454;29;20626;-92
2022/11/10 13:18:54;;;;;;;3.15;2.10;;;;;;;15.75;nan;100604.75;4793011;29;20961;-92
2022/11/10 13:21:54;;;;;;;2.45;1.73;;;;;;;15.71;nan;100606.72;4805617;29;20358;-93
2022/11/10 13:25:35;;;;;;;;;;;;;;;;;;;;;
2022/11/10 13:28:47;;;;;;;2.40;2.17;;;;;;;15.70;nan;100616.50;4786340;29;20251;-92
2022/11/10 13:31:40;;;;;;;3.55;2.22;;;;;;;15.71;nan;100612.03;4789950;29;20229;-92
2022/11/10 13:34:30;;;;;;;4.63;2.92;;;;;;;15.71;nan;100614.69;4794416;29;20821;-91
2022/11/10 13:37:55;;;;;;;;;;;;;;;;;;;;;
2022/11/10 13:40:51;;;;;;;2.78;2.58;;;;;;;15.69;nan;100614.81;4800117;29;20692;-92
2022/11/10 13:43:47;;;;;;;2.03;1.75;;;;;;;15.71;nan;100617.31;4795637;29;20206;-93
2022/11/10 13:46:35;;;;;;;6.13;2.05;;;;;;;15.73;nan;100609.28;4799015;29;20573;-89
2022/11/10 13:49:34;;;;;;;2.95;1.95;;;;;;;15.76;nan;100601.13;4792186;29;20561;-92
2022/11/10 13:52:49;;;;;;;2.28;2.08;;;;;;;15.78;nan;100604.53;4789586;29;20292;-89
2022/11/10 13:56:15;;;;;;;5.43;1.60;;;;;;;15.78;nan;100605.38;4796580;29;20527;-90
2022/11/10 13:59:21;;;;;;;6.15;1.92;;;;;;;15.78;nan;100608.00;4796609;29;20285;-90
2022/11/10 14:02:37;;;;;;;3.85;1.55;;;;;;;15.74;nan;100609.16;4792395;29;20323;-90
2022/11/10 14:05:30;;;;;;;5.55;1.95;;;;;;;15.72;nan;100610.25;4791717;29;20229;-92
2022/11/10 14:08:22;;;;;;;5.03;1.38;;;;;;;15.71;nan;100619.97;4788422;29;20217;-90
2022/11/10 14:11:20;;;;;;;3.92;1.67;;;;;;;15.73;nan;100622.53;4787424;29;20366;-90
2022/11/10 14:14:39;;;;;;;2.85;1.73;;;;;;;15.70;nan;100629.72;4790457;29;20704;-92
2022/11/10 14:17:44;;;;;;;2.53;1.80;;;;;;;15.66;nan;100636.16;4781841;29;20733;-90
2022/11/10 14:20:40;;;;;;;2.03;1.63;;;;;;;15.63;nan;100630.22;4789583;29;20209;-90
2022/11/10 14:23:42;;;;;;;2.60;1.55;;;;;;;15.62;nan;100634.66;4791912;29;20255;-91
2022/11/10 14:26:41;;;;;;;1.63;1.45;;;;;;;15.61;nan;100635.63;4783381;29;20217;-90
2022/11/10 14:29:37;;;;;;;6.07;1.70;;;;;;;15.60;nan;100631.28;4790551;29;20733;-90
2022/11/10 14:32:23;;;;;;;2.42;1.45;;;;;;;15.62;nan;100639.13;4787005;29;20266;-90
2022/11/10 14:35:20;;;;;;;3.88;2.40;;;;;;;15.60;nan;100646.31;4787746;29;20872;-91
2022/11/10 14:38:14;;;;;;;2.75;1.75;;;;;;;15.57;nan;100646.53;4786971;29;20271;-90
2022/11/10 14:41:16;;;;;;;6.57;1.60;;;;;;;15.52;nan;100643.34;4777288;29;20419;-91
2022/11/10 14:44:14;;;;;;;4.93;2.30;;;;;;;15.46;nan;100634.88;4785747;29;20201;-91
2022/11/10 14:47:25;;;;;;;4.60;2.75;;;;;;;15.42;nan;100646.63;4775071;29;20761;-91
2022/11/10 14:50:15;;;;;;;4.97;2.40;;;;;;;15.38;nan;100650.41;4774079;29;20815;-91
2022/11/10 14:53:19;;;;;;;3.28;2.55;;;;;;;15.34;nan;100653.38;4776095;29;20201;-91
2022/11/10 14:56:14;;;;;;;5.82;2.65;;;;;;;15.27;nan;100650.28;4775877;29;20243;-90
2022/11/10 14:59:04;;;;;;;2.55;2.33;;;;;;;15.22;nan;100655.88;4775260;29;20202;-90
2022/11/10 15:02:12;;;;;;;4.95;2.85;;;;;;;15.17;nan;100663.28;4777561;29;21109;-90
2022/11/10 15:04:57;;;;;;;5.07;3.03;;;;;;;15.09;nan;100662.94;4779514;29;20206;-91
2022/11/10 15:07:53;;;;;;;;;;;;;;;;;;;;;
2022/11/10 15:10:40;;;;;;;6.18;2.63;;;;;;;14.97;nan;100669.88;4771703;29;20605;-91
2022/11/10 15:13:30;;;;;;;4.30;3.20;;;;;;;14.87;nan;100663.50;4779222;29;20709;-92
